Time;durP1;ratioP1;P1;durP2;ratioP2;P2;SDS_P1;SDS_P2;PMS_P1;PMS_P2;Temp;Humidity;BMP_temperature;BMP_pressure;BME280_temperature;BME280_humidity;BME280_pressure;Samples;Min_cycle;Max_cycle;Signal;HPM_P1;HPM_P2
2021/11/05 00:01:10;;;;;;;38.63;22.92;;;25.70;99.90;;;;;;4191841;28;20051;-69
2021/11/05 00:03:15;;;;;;;37.47;21.85;;;25.80;99.90;;;;;;4192795;28;20130;-69
2021/11/05 00:05:21;;;;;;;32.00;21.15;;;25.80;99.90;;;;;;4194855;28;20060;-70
2021/11/05 00:07:25;;;;;;;32.45;21.17;;;25.70;99.90;;;;;;4193368;28;20090;-67
2021/11/05 00:09:29;;;;;;;29.60;20.65;;;25.70;99.90;;;;;;4195864;28;20095;-69
2021/11/05 00:11:34;;;;;;;35.45;20.23;;;25.60;99.90;;;;;;4189072;28;20051;-68
2021/11/05 00:13:38;;;;;;;32.10;20.95;;;25.70;99.90;;;;;;4190578;28;20419;-69
2021/11/05 00:15:43;;;;;;;32.67;18.77;;;25.90;99.90;;;;;;4196311;28;20515;-68
2021/11/05 00:17:48;;;;;;;28.17;17.75;;;25.90;99.90;;;;;;4194063;28;20033;-68
2021/11/05 00:19:52;;;;;;;30.00;17.05;;;25.90;99.90;;;;;;4195864;28;20037;-68
2021/11/05 00:21:56;;;;;;;29.83;17.88;;;25.90;99.90;;;;;;4190225;28;20093;-69
2021/11/05 00:24:03;;;;;;;25.65;16.60;;;25.90;99.90;;;;;;4197938;28;20052;-68
2021/11/05 00:26:07;;;;;;;21.15;15.10;;;26.10;99.90;;;;;;4195792;28;20045;-69
2021/11/05 00:28:13;;;;;;;24.75;14.85;;;26.00;99.90;;;;;;4195394;28;20481;-69
2021/11/05 00:30:17;;;;;;;22.15;14.68;;;26.00;99.90;;;;;;4195729;28;20056;-69
2021/11/05 00:32:22;;;;;;;24.33;15.05;;;25.90;99.90;;;;;;4183395;28;20078;-71
2021/11/05 00:34:26;;;;;;;24.17;13.95;;;26.10;99.90;;;;;;4194621;28;20044;-69
2021/11/05 00:36:30;;;;;;;23.50;14.63;;;26.10;99.90;;;;;;4193053;28;20052;-69
2021/11/05 00:38:34;;;;;;;25.13;15.57;;;26.10;99.90;;;;;;4192646;28;20090;-69
2021/11/05 00:40:39;;;;;;;22.17;14.23;;;26.00;99.90;;;;;;4192666;28;20045;-68
2021/11/05 00:42:44;;;;;;;26.50;15.40;;;26.00;99.90;;;;;;4188613;28;20036;-69
2021/11/05 00:44:48;;;;;;;27.52;15.43;;;26.10;99.90;;;;;;4194465;28;20517;-70
2021/11/05 00:46:53;;;;;;;28.45;15.68;;;26.20;99.90;;;;;;4193531;28;20040;-68
2021/11/05 00:49:00;;;;;;;25.75;16.48;;;26.10;99.90;;;;;;4193468;28;20040;-71
2021/11/05 00:51:04;;;;;;;25.13;16.08;;;26.20;99.90;;;;;;4190222;28;20036;-72
2021/11/05 00:53:09;;;;;;;26.13;16.35;;;26.20;99.90;;;;;;4184823;28;20048;-69
2021/11/05 00:55:13;;;;;;;26.98;15.02;;;26.20;99.90;;;;;;4192210;28;20048;-69
2021/11/05 00:57:18;;;;;;;29.17;14.68;;;26.20;99.90;;;;;;4192851;28;20048;-70
2021/11/05 00:59:22;;;;;;;21.70;13.93;;;26.20;99.90;;;;;;4195083;28;20045;-70
2021/11/05 01:01:27;;;;;;;24.52;15.07;;;26.30;99.90;;;;;;4186918;28;20462;-69
2021/11/05 01:03:31;;;;;;;24.30;15.73;;;26.40;99.90;;;;;;4191709;28;20101;-70
2021/11/05 01:05:36;;;;;;;22.52;14.77;;;26.40;99.90;;;;;;4189100;28;20442;-70
2021/11/05 01:07:41;;;;;;;22.55;14.63;;;26.50;99.90;;;;;;4193379;28;20503;-69
2021/11/05 01:09:45;;;;;;;23.92;14.70;;;26.60;99.90;;;;;;4192489;28;20057;-71
2021/11/05 01:11:50;;;;;;;22.58;14.32;;;26.60;99.90;;;;;;4186818;28;20076;-70
2021/11/05 01:13:55;;;;;;;20.20;13.70;;;26.60;99.90;;;;;;4191001;28;20458;-71
2021/11/05 01:15:59;;;;;;;22.15;13.45;;;26.70;99.90;;;;;;4191259;28;20041;-69
2021/11/05 01:18:04;;;;;;;18.75;13.00;;;26.70;99.90;;;;;;4193512;28;20037;-69
2021/11/05 01:20:11;;;;;;;23.02;13.70;;;26.80;99.90;;;;;;4192007;28;20037;-69
2021/11/05 01:22:16;;;;;;;21.17;12.82;;;26.90;99.90;;;;;;4184239;28;20179;-72
2021/11/05 01:24:22;;;;;;;23.20;12.43;;;27.00;99.90;;;;;;4191390;28;20052;-69
2021/11/05 01:26:27;;;;;;;20.55;12.32;;;27.10;99.90;;;;;;4191852;28;20135;-69
2021/11/05 01:28:32;;;;;;;20.23;11.80;;;27.00;99.90;;;;;;4192379;28;20562;-68
2021/11/05 01:30:36;;;;;;;19.40;11.10;;;27.10;99.90;;;;;;4193351;28;20064;-68
2021/11/05 01:32:41;;;;;;;25.25;11.95;;;27.10;99.90;;;;;;4190748;28;20045;-69
2021/11/05 01:34:46;;;;;;;17.67;11.25;;;27.10;99.90;;;;;;4188830;28;20217;-69
2021/11/05 01:36:53;;;;;;;18.38;11.27;;;27.20;99.90;;;;;;4193047;28;20044;-69
2021/11/05 01:39:04;;;;;;;17.00;10.63;;;27.30;99.90;;;;;;4193782;28;20082;-69
2021/11/05 01:41:09;;;;;;;21.20;10.63;;;27.30;99.90;;;;;;4197558;28;20048;-69
2021/11/05 01:43:24;;;;;;;19.55;10.90;;;27.30;99.90;;;;;;4187776;28;20485;-69
2021/11/05 01:45:48;;;;;;;16.85;10.23;;;27.40;99.90;;;;;;4134747;28;20121;-69
2021/11/05 01:47:53;;;;;;;17.83;10.93;;;27.40;99.90;;;;;;4131687;28;20521;-69
2021/11/05 01:49:59;;;;;;;14.88;10.23;;;27.50;99.90;;;;;;4129498;28;20637;-70
2021/11/05 01:52:06;;;;;;;16.40;11.65;;;27.50;99.90;;;;;;4123645;28;20591;-70
2021/11/05 01:54:15;;;;;;;15.38;10.10;;;27.60;99.90;;;;;;4136177;28;20047;-70
2021/11/05 01:56:27;;;;;;;18.60;10.45;;;27.70;99.90;;;;;;4120434;28;20690;-71
2021/11/05 01:58:32;;;;;;;14.95;8.50;;;27.70;99.90;;;;;;4135943;28;20061;-70
2021/11/05 02:00:37;;;;;;;17.00;8.15;;;27.70;99.90;;;;;;4134495;28;20584;-70
2021/11/05 02:02:44;;;;;;;15.20;8.20;;;27.80;99.90;;;;;;4133430;28;20056;-70
2021/11/05 02:04:59;;;;;;;13.32;6.97;;;27.80;99.90;;;;;;4134574;28;20085;-68
2021/11/05 02:07:09;;;;;;;11.93;6.68;;;27.80;99.90;;;;;;4128069;28;20076;-68
2021/11/05 02:09:43;;;;;;;9.90;6.68;;;27.90;99.90;;;;;;4134968;28;20056;-69
2021/11/05 02:11:49;;;;;;;9.70;5.75;;;27.90;99.30;;;;;;4126133;28;20050;-70
2021/11/05 02:13:58;;;;;;;14.38;6.65;;;27.80;99.60;;;;;;4133765;28;20057;-70
2021/11/05 02:16:07;;;;;;;11.75;6.90;;;27.90;99.50;;;;;;4133149;28;20054;-70
2021/11/05 02:18:32;;;;;;;12.27;6.75;;;28.00;99.60;;;;;;4121087;28;20042;-69
2021/11/05 02:21:11;;;;;;;10.05;6.30;;;28.00;99.80;;;;;;4055836;29;20479;-70
2021/11/05 02:23:18;;;;;;;12.48;5.93;;;28.10;99.50;;;;;;4024720;29;20053;-69
2021/11/05 02:25:26;;;;;;;11.13;5.97;;;28.20;98.90;;;;;;4029348;29;20338;-70
2021/11/05 02:27:31;;;;;;;13.63;6.47;;;28.20;99.20;;;;;;4028213;29;20041;-70
2021/11/05 02:29:36;;;;;;;11.27;6.95;;;28.30;99.30;;;;;;4042617;29;20048;-71
2021/11/05 02:31:40;;;;;;;11.13;6.60;;;28.30;99.20;;;;;;4053278;29;20144;-70
2021/11/05 02:33:45;;;;;;;10.75;5.90;;;28.50;99.50;;;;;;4060194;29;20127;-69
2021/11/05 02:35:49;;;;;;;12.85;6.40;;;28.40;98.60;;;;;;4029626;29;20053;-69
2021/11/05 02:38:03;;;;;;;8.55;5.60;;;28.40;98.90;;;;;;4054746;29;20535;-70
2021/11/05 02:40:23;;;;;;;11.73;6.15;;;28.50;98.80;;;;;;4017888;29;20428;-70
2021/11/05 02:42:33;;;;;;;12.48;5.88;;;28.40;98.70;;;;;;4019830;29;20050;-69
2021/11/05 02:44:47;;;;;;;11.30;5.70;;;28.50;98.70;;;;;;4011314;29;20912;-70
2021/11/05 02:47:15;;;;;;;10.13;5.55;;;28.60;98.40;;;;;;4009687;29;20053;-71
2021/11/05 02:49:19;;;;;;;13.50;5.95;;;28.60;97.90;;;;;;4021322;29;20796;-70
2021/11/05 02:51:48;;;;;;;10.30;5.20;;;28.70;98.00;;;;;;4008657;29;20480;-70
2021/11/05 02:53:56;;;;;;;11.30;5.82;;;28.70;97.70;;;;;;4022743;29;20297;-71
2021/11/05 02:56:00;;;;;;;11.50;6.18;;;28.70;98.30;;;;;;4022512;29;20057;-70
2021/11/05 02:58:28;;;;;;;13.13;6.38;;;28.80;98.60;;;;;;4036760;29;20111;-70
2021/11/05 03:00:45;;;;;;;9.63;5.72;;;28.80;98.50;;;;;;4079009;28;20129;-69
2021/11/05 03:03:08;;;;;;;10.05;5.40;;;28.90;98.70;;;;;;4095093;28;20055;-70
2021/11/05 03:05:14;;;;;;;11.10;5.43;;;28.90;98.50;;;;;;4107053;28;20078;-70
2021/11/05 03:07:18;;;;;;;11.38;5.60;;;29.00;97.70;;;;;;4102418;28;20074;-70
2021/11/05 03:09:40;;;;;;;12.23;6.20;;;29.00;97.80;;;;;;4076551;29;20574;-71
2021/11/05 03:11:46;;;;;;;10.00;5.15;;;29.10;97.80;;;;;;4054655;29;20044;-70
2021/11/05 03:13:50;;;;;;;9.93;5.03;;;29.10;96.90;;;;;;4070054;29;20039;-70
2021/11/05 03:15:54;;;;;;;14.18;7.00;;;29.20;97.00;;;;;;4074763;29;20450;-70
2021/11/05 03:18:00;;;;;;;23.40;12.50;;;29.20;96.90;;;;;;4090092;28;20057;-70
2021/11/05 03:20:06;;;;;;;13.15;6.40;;;29.20;96.50;;;;;;4092305;28;20067;-71
2021/11/05 03:22:11;;;;;;;10.73;6.30;;;29.30;96.20;;;;;;4099538;28;20066;-69
2021/11/05 03:24:16;;;;;;;8.80;4.68;;;29.40;96.80;;;;;;4126129;28;20045;-69
2021/11/05 03:26:21;;;;;;;8.35;4.60;;;29.30;95.70;;;;;;4128690;28;20046;-69
2021/11/05 03:28:25;;;;;;;9.32;4.60;;;29.40;96.10;;;;;;4124055;28;20777;-71
2021/11/05 03:30:30;;;;;;;10.52;5.43;;;29.40;95.80;;;;;;4123947;28;20084;-72
2021/11/05 03:32:35;;;;;;;8.52;5.20;;;29.40;95.50;;;;;;4145608;28;20057;-71
2021/11/05 03:34:39;;;;;;;7.18;4.63;;;29.40;96.10;;;;;;4155558;28;20053;-70
2021/11/05 03:36:44;;;;;;;8.88;4.20;;;29.50;95.20;;;;;;4157358;28;20107;-71
2021/11/05 03:38:49;;;;;;;9.63;4.70;;;29.50;95.50;;;;;;4156870;28;20057;-70
2021/11/05 03:40:53;;;;;;;8.65;4.70;;;29.50;95.30;;;;;;4150719;28;20052;-71
2021/11/05 03:42:57;;;;;;;22.65;5.75;;;29.60;94.90;;;;;;4148248;28;20571;-70
2021/11/05 03:45:03;;;;;;;24.20;16.50;;;29.70;96.20;;;;;;4157127;28;20124;-69
2021/11/05 03:47:07;;;;;;;18.98;10.68;;;29.70;96.30;;;;;;4163440;28;20049;-70
2021/11/05 03:49:12;;;;;;;10.50;5.68;;;29.70;96.30;;;;;;4187860;28;20400;-69
2021/11/05 03:51:16;;;;;;;9.27;5.35;;;29.80;95.20;;;;;;4181954;28;20410;-70
2021/11/05 03:53:21;;;;;;;8.90;5.40;;;29.80;95.00;;;;;;4184933;28;20056;-70
2021/11/05 03:55:25;;;;;;;11.25;6.30;;;29.90;95.20;;;;;;4192288;28;20040;-70
2021/11/05 03:57:30;;;;;;;11.20;6.32;;;29.90;95.80;;;;;;4192133;28;20087;-70
2021/11/05 03:59:34;;;;;;;9.13;5.53;;;30.10;95.80;;;;;;4192077;28;20153;-71
2021/11/05 04:01:39;;;;;;;8.43;4.78;;;30.00;95.10;;;;;;4185274;28;20079;-70
2021/11/05 04:03:43;;;;;;;8.55;4.28;;;30.00;94.50;;;;;;4189277;28;20388;-71
2021/11/05 04:05:48;;;;;;;7.80;4.32;;;30.00;94.30;;;;;;4191617;28;20050;-71
2021/11/05 04:07:52;;;;;;;13.10;7.38;;;30.00;93.70;;;;;;4189849;28;20096;-70
2021/11/05 04:09:57;;;;;;;10.90;6.60;;;29.90;95.50;;;;;;4190482;28;20472;-71
2021/11/05 04:12:02;;;;;;;10.95;6.63;;;30.00;95.40;;;;;;4178897;28;20127;-71
2021/11/05 04:14:07;;;;;;;11.43;5.43;;;30.00;95.40;;;;;;4186952;28;20051;-70
2021/11/05 04:16:13;;;;;;;11.10;4.90;;;30.00;95.30;;;;;;4185846;28;20042;-70
2021/11/05 04:18:17;;;;;;;10.27;4.50;;;29.80;94.90;;;;;;4190754;28;20060;-70
2021/11/05 04:20:21;;;;;;;11.15;4.78;;;29.70;94.40;;;;;;4186087;28;20103;-70
2021/11/05 04:22:25;;;;;;;9.05;3.92;;;29.70;94.50;;;;;;4178416;28;20310;-70
2021/11/05 04:24:29;;;;;;;7.82;4.20;;;29.70;94.00;;;;;;4187783;28;20094;-70
2021/11/05 04:26:35;;;;;;;9.23;4.72;;;29.70;94.30;;;;;;4191707;28;20121;-69
2021/11/05 04:28:39;;;;;;;11.85;4.68;;;29.90;94.10;;;;;;4191724;28;20414;-70
2021/11/05 04:30:44;;;;;;;7.40;4.55;;;30.10;94.40;;;;;;4190850;28;20340;-70
2021/11/05 04:32:48;;;;;;;8.98;4.70;;;30.20;94.40;;;;;;4183550;28;20084;-69
2021/11/05 04:34:53;;;;;;;8.15;4.68;;;30.30;93.60;;;;;;4192292;28;20128;-70
2021/11/05 04:36:57;;;;;;;7.65;4.00;;;30.30;94.00;;;;;;4190696;28;20483;-69
2021/11/05 04:39:02;;;;;;;6.25;3.75;;;30.40;93.00;;;;;;4191848;28;20048;-70
2021/11/05 04:41:10;;;;;;;7.18;3.35;;;30.30;92.80;;;;;;4186913;28;20082;-70
2021/11/05 04:43:15;;;;;;;6.80;3.72;;;30.40;92.70;;;;;;4185620;28;20056;-70
2021/11/05 04:45:19;;;;;;;5.40;3.13;;;30.40;92.50;;;;;;4183544;28;20086;-69
2021/11/05 04:47:24;;;;;;;9.45;3.95;;;30.40;92.40;;;;;;4192076;28;20068;-70
2021/11/05 04:49:28;;;;;;;8.43;3.78;;;30.50;92.30;;;;;;4193388;28;20052;-69
2021/11/05 04:51:32;;;;;;;9.43;4.25;;;30.60;92.20;;;;;;4178939;28;20048;-70
2021/11/05 04:53:38;;;;;;;7.65;3.75;;;30.60;92.40;;;;;;4187566;28;20114;-69
2021/11/05 04:55:42;;;;;;;9.73;4.10;;;30.70;92.60;;;;;;4184056;28;20591;-69
2021/11/05 04:57:47;;;;;;;7.43;3.63;;;30.60;91.90;;;;;;4192104;28;20048;-68
2021/11/05 04:59:54;;;;;;;7.90;4.15;;;30.60;92.30;;;;;;4188911;28;20086;-68
2021/11/05 05:01:59;;;;;;;6.40;3.53;;;30.60;92.60;;;;;;4190886;28;20071;-69
2021/11/05 05:04:04;;;;;;;7.75;3.88;;;30.80;92.00;;;;;;4195081;28;20044;-68
2021/11/05 05:06:11;;;;;;;7.10;4.03;;;30.80;91.30;;;;;;4194096;28;20044;-68
2021/11/05 05:08:15;;;;;;;7.78;3.88;;;30.80;91.40;;;;;;4193116;28;20091;-69
2021/11/05 05:10:21;;;;;;;8.25;4.00;;;30.80;91.50;;;;;;4195206;28;20074;-69
2021/11/05 05:12:26;;;;;;;6.70;3.60;;;30.70;91.40;;;;;;4183365;28;20040;-68
2021/11/05 05:14:33;;;;;;;6.53;3.95;;;30.70;91.00;;;;;;4208526;28;20036;-66
2021/11/05 05:16:39;;;;;;;6.95;3.78;;;30.90;91.10;;;;;;4193562;28;20043;-67
2021/11/05 05:18:46;;;;;;;5.68;4.03;;;30.90;91.70;;;;;;4185208;28;20037;-68
2021/11/05 05:20:51;;;;;;;8.27;4.05;;;30.90;91.50;;;;;;4188826;28;20106;-67
2021/11/05 05:22:56;;;;;;;8.77;4.00;;;31.00;91.50;;;;;;4187622;28;20335;-67
2021/11/05 05:25:01;;;;;;;7.00;3.97;;;31.00;91.10;;;;;;4193940;28;20131;-68
2021/11/05 05:27:06;;;;;;;8.00;4.43;;;31.10;91.00;;;;;;4193532;28;20548;-68
2021/11/05 05:29:11;;;;;;;8.63;3.90;;;31.10;91.10;;;;;;4192952;28;20418;-68
2021/11/05 05:31:18;;;;;;;7.72;3.95;;;31.20;90.40;;;;;;4188994;28;20047;-68
2021/11/05 05:33:25;;;;;;;8.15;4.10;;;31.10;89.50;;;;;;4188984;28;20076;-68
2021/11/05 05:35:34;;;;;;;5.10;3.63;;;31.10;90.10;;;;;;4192004;28;20044;-68
2021/11/05 05:37:53;;;;;;;6.63;3.75;;;31.30;90.30;;;;;;4193481;28;20051;-67
2021/11/05 05:39:58;;;;;;;8.15;3.60;;;31.50;89.90;;;;;;4191847;28;20032;-68
2021/11/05 05:42:07;;;;;;;8.95;3.55;;;31.50;90.20;;;;;;4187622;28;20098;-67
2021/11/05 05:44:12;;;;;;;8.63;3.53;;;31.50;90.20;;;;;;4187875;28;20135;-67
2021/11/05 05:46:17;;;;;;;8.93;3.92;;;31.70;88.50;;;;;;4189290;28;20057;-68
2021/11/05 05:48:22;;;;;;;6.05;3.35;;;31.70;88.00;;;;;;4191987;28;20076;-69
2021/11/05 05:50:26;;;;;;;6.32;3.42;;;31.50;86.90;;;;;;4191556;28;20132;-68
2021/11/05 05:52:51;;;;;;;6.35;3.20;;;31.50;87.10;;;;;;4186489;28;20407;-68
2021/11/05 05:54:57;;;;;;;4.82;3.60;;;31.50;86.30;;;;;;4190458;28;20044;-68
2021/11/05 05:57:13;;;;;;;5.70;3.50;;;31.70;87.00;;;;;;4193260;28;20064;-68
2021/11/05 05:59:20;;;;;;;7.22;3.90;;;31.70;86.80;;;;;;4192927;28;20107;-68
2021/11/05 06:01:26;;;;;;;5.28;3.83;;;31.70;88.10;;;;;;4187119;28;20045;-68
2021/11/05 06:03:39;;;;;;;11.30;4.07;;;31.70;88.20;;;;;;4194208;28;20530;-68
2021/11/05 06:05:44;;;;;;;7.93;4.05;;;31.70;89.80;;;;;;4193056;28;20115;-67
2021/11/05 06:07:48;;;;;;;6.43;3.85;;;31.70;88.70;;;;;;4192437;28;20388;-68
2021/11/05 06:09:53;;;;;;;7.47;4.00;;;31.80;89.60;;;;;;4191078;28;20048;-68
2021/11/05 06:11:57;;;;;;;10.43;4.40;;;31.80;89.50;;;;;;4186449;28;20052;-69
2021/11/05 06:14:02;;;;;;;6.78;4.38;;;31.60;87.90;;;;;;4189790;28;20068;-67
2021/11/05 06:16:17;;;;;;;8.18;4.40;;;31.50;89.10;;;;;;4193392;28;20040;-68
2021/11/05 06:18:27;;;;;;;4.80;3.63;;;31.40;88.40;;;;;;4190234;28;20045;-68
2021/11/05 06:20:31;;;;;;;7.30;4.22;;;31.40;88.60;;;;;;4191594;28;20048;-69
2021/11/05 06:22:37;;;;;;;6.40;4.00;;;31.40;88.50;;;;;;4183990;28;21594;-68
2021/11/05 06:24:43;;;;;;;7.90;3.95;;;31.50;88.00;;;;;;4193721;28;20052;-67
2021/11/05 06:27:00;;;;;;;5.72;3.70;;;31.60;87.90;;;;;;4189627;28;20059;-67
2021/11/05 06:29:05;;;;;;;7.60;4.25;;;31.60;88.00;;;;;;4194632;28;20446;-68
2021/11/05 06:31:10;;;;;;;6.22;4.20;;;31.70;86.90;;;;;;4188297;28;20125;-69
2021/11/05 06:33:15;;;;;;;7.97;3.90;;;31.70;86.70;;;;;;4186767;28;20074;-66
2021/11/05 06:35:20;;;;;;;12.15;4.78;;;31.80;87.40;;;;;;4192003;28;20087;-68
2021/11/05 06:37:25;;;;;;;7.82;4.03;;;31.80;87.40;;;;;;4192625;28;20064;-67
2021/11/05 06:39:30;;;;;;;7.97;4.00;;;31.90;87.50;;;;;;4191963;28;20049;-67
2021/11/05 06:41:36;;;;;;;7.35;4.10;;;31.90;87.30;;;;;;4185708;28;20048;-67
2021/11/05 06:43:41;;;;;;;6.95;4.00;;;31.90;86.60;;;;;;4189253;28;20325;-68
2021/11/05 06:45:45;;;;;;;9.13;4.35;;;31.90;86.90;;;;;;4192676;28;20052;-67
2021/11/05 06:47:50;;;;;;;9.88;4.00;;;31.70;87.30;;;;;;4192075;28;20506;-68
2021/11/05 06:49:57;;;;;;;8.15;4.03;;;31.50;88.50;;;;;;4191106;28;20048;-69
2021/11/05 06:52:04;;;;;;;6.60;3.47;;;31.50;89.00;;;;;;4186255;28;20336;-68
2021/11/05 06:54:17;;;;;;;6.10;3.85;;;31.40;87.30;;;;;;4190887;28;20549;-69
2021/11/05 06:56:23;;;;;;;6.63;3.67;;;31.20;88.10;;;;;;4190562;28;20055;-69
2021/11/05 06:58:32;;;;;;;9.55;4.70;;;31.20;88.30;;;;;;4190688;28;20045;-68
2021/11/05 07:00:48;;;;;;;9.68;4.32;;;31.20;89.10;;;;;;4188009;28;20032;-68
2021/11/05 07:03:02;;;;;;;6.90;4.20;;;31.20;89.20;;;;;;4184665;28;20118;-68
2021/11/05 07:05:10;;;;;;;7.72;4.00;;;31.40;88.80;;;;;;4192601;28;20048;-67
2021/11/05 07:07:16;;;;;;;8.40;4.10;;;31.50;88.20;;;;;;4192053;28;20065;-67
2021/11/05 07:09:20;;;;;;;7.85;3.75;;;31.50;89.20;;;;;;4191245;28;20060;-68
2021/11/05 07:11:25;;;;;;;8.95;3.90;;;31.40;88.30;;;;;;4185226;28;20045;-67
2021/11/05 07:13:30;;;;;;;6.22;3.75;;;31.40;88.40;;;;;;4189505;28;20044;-67
2021/11/05 07:15:34;;;;;;;7.90;4.32;;;31.40;88.70;;;;;;4192174;28;20047;-69
2021/11/05 07:17:39;;;;;;;14.27;4.35;;;31.50;88.50;;;;;;4190264;28;20076;-67
2021/11/05 07:19:46;;;;;;;8.98;3.85;;;31.50;86.80;;;;;;4190649;28;20044;-68
2021/11/05 07:21:59;;;;;;;9.88;3.70;;;31.40;86.60;;;;;;4183574;28;20056;-68
2021/11/05 07:24:04;;;;;;;6.57;3.78;;;31.40;87.80;;;;;;4192957;28;20039;-68
2021/11/05 07:26:11;;;;;;;8.48;3.97;;;31.40;88.00;;;;;;4191565;28;20040;-68
2021/11/05 07:28:17;;;;;;;6.50;4.10;;;31.40;87.40;;;;;;4189342;28;20064;-68
2021/11/05 07:30:23;;;;;;;5.88;4.22;;;31.40;87.90;;;;;;4192298;28;20130;-68
2021/11/05 07:32:28;;;;;;;7.38;3.60;;;31.50;87.50;;;;;;4181360;28;20138;-68
2021/11/05 07:34:32;;;;;;;7.28;3.83;;;31.50;86.90;;;;;;4193850;28;20048;-68
2021/11/05 07:36:37;;;;;;;6.15;3.80;;;31.50;85.70;;;;;;4192294;28;20343;-68
2021/11/05 07:38:42;;;;;;;17.13;9.43;;;31.50;86.10;;;;;;4191828;28;20064;-68
2021/11/05 07:40:48;;;;;;;13.52;9.48;;;31.60;87.10;;;;;;4187108;28;20079;-66
2021/11/05 07:42:52;;;;;;;12.43;6.70;;;31.60;87.90;;;;;;4188842;28;20048;-67
2021/11/05 07:44:57;;;;;;;14.25;9.65;;;31.60;87.90;;;;;;4190715;28;20032;-67
2021/11/05 07:47:02;;;;;;;23.90;11.45;;;31.60;88.00;;;;;;4191313;28;20090;-67
2021/11/05 07:49:08;;;;;;;10.65;6.57;;;31.50;87.40;;;;;;4192244;28;20040;-66
2021/11/05 07:51:12;;;;;;;9.90;5.53;;;31.60;87.40;;;;;;4188547;28;20047;-66
2021/11/05 07:53:17;;;;;;;7.97;4.20;;;31.60;87.20;;;;;;4178758;28;20071;-66
2021/11/05 07:55:21;;;;;;;7.22;3.80;;;31.70;86.20;;;;;;4185200;28;20074;-67
2021/11/05 07:57:26;;;;;;;6.90;3.72;;;31.60;86.40;;;;;;4190255;28;20083;-68
2021/11/05 07:59:31;;;;;;;8.13;3.72;;;31.60;86.40;;;;;;4186117;28;20388;-66
2021/11/05 08:01:35;;;;;;;7.45;3.75;;;31.60;86.00;;;;;;4184302;28;20040;-66
2021/11/05 08:03:41;;;;;;;4.88;3.47;;;31.60;86.20;;;;;;4190402;28;20464;-66
2021/11/05 08:05:47;;;;;;;10.18;3.58;;;31.60;85.80;;;;;;4182544;28;20040;-66
2021/11/05 08:07:52;;;;;;;9.18;3.63;;;31.60;85.50;;;;;;4188044;28;20048;-67
2021/11/05 08:09:56;;;;;;;6.57;3.45;;;31.60;85.50;;;;;;4181315;28;20527;-66
2021/11/05 08:12:01;;;;;;;6.75;3.60;;;31.70;85.10;;;;;;4185694;28;20136;-66
2021/11/05 08:14:06;;;;;;;6.57;3.53;;;31.60;82.90;;;;;;4190688;28;20070;-66
2021/11/05 08:16:11;;;;;;;5.63;3.50;;;31.60;84.90;;;;;;4192495;28;20553;-66
2021/11/05 08:18:15;;;;;;;6.53;3.38;;;31.60;84.10;;;;;;4191559;28;20143;-66
2021/11/05 08:20:19;;;;;;;7.82;3.85;;;31.60;83.90;;;;;;4192309;28;20037;-66
2021/11/05 08:22:24;;;;;;;7.35;3.45;;;31.60;83.20;;;;;;4185860;28;20048;-66
2021/11/05 08:24:28;;;;;;;7.03;3.50;;;31.60;83.20;;;;;;4192422;28;20052;-66
2021/11/05 08:26:33;;;;;;;6.75;3.40;;;31.60;84.40;;;;;;4192275;28;20048;-67
2021/11/05 08:28:38;;;;;;;8.18;3.95;;;31.60;84.10;;;;;;4194724;28;20070;-68
2021/11/05 08:30:43;;;;;;;7.43;3.65;;;31.70;83.30;;;;;;4188230;28;20419;-68
2021/11/05 08:32:47;;;;;;;10.02;4.10;;;31.60;83.30;;;;;;4185155;28;20467;-68
2021/11/05 08:34:52;;;;;;;9.52;3.60;;;31.60;82.40;;;;;;4178856;28;20122;-67
2021/11/05 08:36:56;;;;;;;5.25;3.45;;;31.60;82.70;;;;;;4188231;28;20040;-67
2021/11/05 08:39:00;;;;;;;6.47;3.97;;;31.60;82.20;;;;;;4191470;28;20056;-67
2021/11/05 08:41:07;;;;;;;9.85;3.40;;;31.60;83.00;;;;;;4187742;28;20033;-66
2021/11/05 08:43:12;;;;;;;5.97;3.28;;;31.60;83.20;;;;;;4174430;28;20036;-66
2021/11/05 08:45:16;;;;;;;8.68;3.88;;;31.60;82.90;;;;;;4201861;28;20044;-66
2021/11/05 08:47:21;;;;;;;7.30;3.70;;;31.60;82.60;;;;;;4191954;28;20047;-67
2021/11/05 08:49:27;;;;;;;7.90;3.65;;;31.60;82.80;;;;;;4192701;28;20524;-67
2021/11/05 08:51:32;;;;;;;7.45;3.88;;;31.60;83.50;;;;;;4185947;28;20091;-67
2021/11/05 08:53:38;;;;;;;7.60;3.80;;;31.60;83.80;;;;;;4187974;28;20041;-66
2021/11/05 08:55:43;;;;;;;8.38;3.85;;;31.60;83.60;;;;;;4192529;28;20036;-67
2021/11/05 08:57:48;;;;;;;10.63;3.95;;;31.60;84.00;;;;;;4190309;28;20049;-67
2021/11/05 08:59:53;;;;;;;11.88;3.42;;;31.60;84.90;;;;;;4192172;28;20045;-68
2021/11/05 09:01:58;;;;;;;6.50;3.58;;;31.60;82.90;;;;;;4182543;28;20041;-68
2021/11/05 09:04:03;;;;;;;9.25;4.13;;;31.60;83.30;;;;;;4190740;28;20449;-67
2021/11/05 09:06:07;;;;;;;9.50;3.63;;;31.50;83.40;;;;;;4189695;28;20067;-67
2021/11/05 09:08:12;;;;;;;9.20;4.30;;;31.60;82.60;;;;;;4190164;28;20519;-68
2021/11/05 09:10:16;;;;;;;8.82;4.25;;;31.60;83.30;;;;;;4190061;28;20175;-67
2021/11/05 09:12:21;;;;;;;9.05;4.43;;;31.50;84.30;;;;;;4185784;28;20162;-67
2021/11/05 09:14:26;;;;;;;6.63;4.03;;;31.50;85.50;;;;;;4191117;28;20117;-67
2021/11/05 09:16:43;;;;;;;8.15;3.85;;;31.40;85.80;;;;;;4190930;28;20031;-67
2021/11/05 09:18:48;;;;;;;9.15;4.80;;;31.50;86.00;;;;;;4192980;28;20040;-66
2021/11/05 09:20:53;;;;;;;6.93;4.05;;;31.50;86.20;;;;;;4183913;28;20037;-67
2021/11/05 09:22:58;;;;;;;8.07;4.28;;;31.50;85.50;;;;;;4180233;28;20503;-66
2021/11/05 09:25:05;;;;;;;7.70;3.97;;;31.50;84.50;;;;;;4191374;28;20127;-67
2021/11/05 09:27:11;;;;;;;11.00;4.43;;;31.40;85.20;;;;;;4189769;28;20143;-66
2021/11/05 09:29:18;;;;;;;13.55;4.38;;;31.40;85.20;;;;;;4189201;28;20057;-66
2021/11/05 09:31:23;;;;;;;10.65;4.57;;;31.40;85.00;;;;;;4178247;28;20051;-65
2021/11/05 09:33:27;;;;;;;12.07;5.13;;;31.30;83.60;;;;;;4187846;28;20048;-66
2021/11/05 09:35:32;;;;;;;11.50;5.13;;;31.20;84.50;;;;;;4185062;28;20131;-66
2021/11/05 09:37:37;;;;;;;10.10;4.85;;;31.20;84.70;;;;;;4182975;28;20048;-66
2021/11/05 09:39:42;;;;;;;12.57;5.47;;;31.20;84.50;;;;;;4188985;28;20497;-66
2021/11/05 09:41:49;;;;;;;10.77;4.78;;;31.20;84.90;;;;;;4184237;28;20502;-67
2021/11/05 09:43:54;;;;;;;15.30;5.45;;;31.20;84.60;;;;;;4187364;28;20521;-67
2021/11/05 09:45:59;;;;;;;11.27;5.18;;;31.10;85.20;;;;;;4189995;28;20537;-67
2021/11/05 09:48:04;;;;;;;11.40;5.45;;;31.10;85.00;;;;;;4189871;28;20048;-67
2021/11/05 09:50:09;;;;;;;10.15;5.03;;;31.10;85.60;;;;;;4187941;28;20136;-67
2021/11/05 09:52:13;;;;;;;12.30;5.15;;;31.10;85.70;;;;;;4180849;28;20490;-67
2021/11/05 09:54:18;;;;;;;13.57;5.75;;;31.20;85.80;;;;;;4188242;28;20056;-67
2021/11/05 09:56:23;;;;;;;9.38;5.60;;;31.10;85.40;;;;;;4190417;28;20048;-67
2021/11/05 09:58:28;;;;;;;10.40;5.28;;;31.10;84.90;;;;;;4190410;28;20045;-67
2021/11/05 10:00:32;;;;;;;10.85;4.93;;;31.10;84.90;;;;;;4186289;28;20037;-66
2021/11/05 10:02:37;;;;;;;8.57;4.55;;;31.10;83.90;;;;;;4183665;28;20048;-66
2021/11/05 10:04:42;;;;;;;9.52;5.25;;;31.00;84.00;;;;;;4183102;28;20125;-67
2021/11/05 10:07:01;;;;;;;14.05;5.40;;;31.00;85.00;;;;;;4188976;28;20048;-67
2021/11/05 10:09:16;;;;;;;15.45;5.72;;;31.00;85.20;;;;;;4189444;28;20047;-67
2021/11/05 10:11:28;;;;;;;12.52;6.10;;;31.00;85.30;;;;;;4185671;28;20440;-67
2021/11/05 10:13:39;;;;;;;9.43;5.10;;;31.00;86.50;;;;;;4189328;28;20511;-67
2021/11/05 10:15:47;;;;;;;8.98;5.00;;;31.00;86.60;;;;;;4185740;28;20045;-67
2021/11/05 10:18:07;;;;;;;10.13;5.25;;;31.00;85.60;;;;;;4181369;28;20247;-68
2021/11/05 10:20:12;;;;;;;11.60;5.38;;;30.90;85.90;;;;;;4188357;28;20110;-67
2021/11/05 10:22:34;;;;;;;11.73;5.10;;;30.90;86.30;;;;;;4179076;28;20102;-66
2021/11/05 10:24:38;;;;;;;12.23;5.65;;;30.90;85.90;;;;;;4190142;28;20049;-67
2021/11/05 10:26:43;;;;;;;10.90;4.85;;;30.90;86.60;;;;;;4189022;28;20047;-67
2021/11/05 10:28:48;;;;;;;12.60;5.43;;;30.90;87.40;;;;;;4189964;28;20067;-67
2021/11/05 10:31:03;;;;;;;10.95;5.38;;;30.90;87.80;;;;;;4186886;28;20052;-67
2021/11/05 10:33:08;;;;;;;11.07;5.45;;;30.80;88.30;;;;;;4186123;28;20045;-67
2021/11/05 10:35:20;;;;;;;10.68;5.68;;;30.80;87.90;;;;;;4189540;28;20048;-67
2021/11/05 10:37:28;;;;;;;14.25;6.00;;;30.70;88.90;;;;;;4182195;28;20141;-67
2021/11/05 10:39:35;;;;;;;11.50;5.57;;;30.70;88.60;;;;;;4188990;28;20048;-68
2021/11/05 10:41:40;;;;;;;16.90;6.15;;;30.70;89.50;;;;;;4181728;28;20063;-67
2021/11/05 10:43:47;;;;;;;13.75;6.03;;;30.70;89.90;;;;;;4181430;28;20055;-67
2021/11/05 10:45:51;;;;;;;15.65;6.30;;;30.70;90.00;;;;;;4188314;28;20143;-67
2021/11/05 10:47:59;;;;;;;20.75;8.93;;;30.60;90.20;;;;;;4189879;28;20056;-67
2021/11/05 10:50:11;;;;;;;29.77;13.65;;;30.60;90.80;;;;;;4188891;28;20694;-67
2021/11/05 10:52:22;;;;;;;25.67;11.45;;;30.60;91.10;;;;;;4180167;28;20055;-66
2021/11/05 10:54:29;;;;;;;34.97;15.75;;;30.50;91.20;;;;;;4189325;28;20128;-67